Time;durP1;ratioP1;P1;durP2;ratioP2;P2;SDS_P1;SDS_P2;PMS_P1;PMS_P2;Temp;Humidity;BMP_temperature;BMP_pressure;BME280_temperature;BME280_humidity;BME280_pressure;Samples;Min_cycle;Max_cycle;Signal;HPM_P1;HPM_P2
2023/04/10 00:00:31;;;;;;;0.70;0.70;;;;;;;10.31;100.00;100496.88;5016215;28;20230;-76
2023/04/10 00:03:00;;;;;;;0.80;0.80;;;;;;;10.38;100.00;100501.34;5051366;28;20596;-76
2023/04/10 00:05:27;;;;;;;0.77;0.77;;;;;;;10.40;100.00;100502.28;5035623;28;20584;-76
2023/04/10 00:07:53;;;;;;;1.00;1.00;;;;;;;10.33;100.00;100486.56;5051152;28;20227;-75
2023/04/10 00:10:21;;;;;;;0.80;0.80;;;;;;;10.42;100.00;100492.81;5051635;28;20207;-76
2023/04/10 00:12:47;;;;;;;0.80;0.80;;;;;;;10.40;100.00;100491.03;5050961;28;20231;-76
2023/04/10 00:15:16;;;;;;;0.80;0.80;;;;;;;10.41;100.00;100498.88;5051456;28;20613;-76
2023/04/10 00:17:42;;;;;;;0.70;0.70;;;;;;;10.32;100.00;100496.03;5051122;28;20203;-76
2023/04/10 00:20:10;;;;;;;0.70;0.70;;;;;;;10.35;100.00;100492.63;5050813;28;20223;-76
2023/04/10 00:22:37;;;;;;;0.70;0.70;;;;;;;10.28;100.00;100491.63;5051661;28;20246;-76
2023/04/10 00:25:05;;;;;;;0.70;0.70;;;;;;;10.28;100.00;100491.63;5051161;28;20195;-76
2023/04/10 00:27:32;;;;;;;0.60;0.60;;;;;;;10.23;100.00;100488.09;5016859;28;20202;-76
2023/04/10 00:29:59;;;;;;;0.70;0.70;;;;;;;10.18;100.00;100476.72;5050178;28;20662;-76
2023/04/10 00:32:27;;;;;;;0.70;0.70;;;;;;;10.25;100.00;100485.50;5032144;28;20195;-76
2023/04/10 00:34:53;;;;;;;0.75;0.75;;;;;;;10.23;100.00;100477.72;5050174;28;20211;-75
2023/04/10 00:37:20;;;;;;;0.70;0.70;;;;;;;10.27;100.00;100479.50;5051475;28;20199;-76
2023/04/10 00:39:47;;;;;;;0.75;0.75;;;;;;;10.28;100.00;100475.19;5050798;28;20204;-76
2023/04/10 00:42:14;;;;;;;0.70;0.70;;;;;;;10.26;100.00;100475.19;5047494;28;20257;-76
2023/04/10 00:44:40;;;;;;;0.70;0.70;;;;;;;10.21;100.00;100460.34;5050307;28;20200;-76
2023/04/10 00:47:08;;;;;;;0.70;0.70;;;;;;;10.31;100.00;100481.31;5050153;28;20612;-76
2023/04/10 00:49:36;;;;;;;1.10;1.10;;;;;;;10.22;100.00;100444.84;5050265;28;20188;-76
2023/04/10 00:52:03;;;;;;;0.70;0.70;;;;;;;10.19;100.00;100447.38;5049596;28;20575;-76
2023/04/10 00:54:31;;;;;;;0.77;0.77;;;;;;;10.37;100.00;100471.13;5014451;28;20207;-76
2023/04/10 00:56:59;;;;;;;0.90;0.90;;;;;;;10.33;100.00;100461.53;5050540;28;20195;-77
2023/04/10 00:59:26;;;;;;;0.80;0.80;;;;;;;10.17;100.00;100436.09;5050583;28;20264;-75
2023/04/10 01:01:52;;;;;;;0.60;0.60;;;;;;;10.28;100.00;100463.13;5050851;28;20314;-75
2023/04/10 01:04:20;;;;;;;0.73;0.73;;;;;;;10.35;100.00;100466.72;5052789;28;20550;-76
2023/04/10 01:06:56;;;;;;;0.80;0.80;;;;;;;10.50;100.00;100461.88;5021644;28;20554;-76
2023/04/10 01:09:35;;;;;;;0.70;0.70;;;;;;;10.24;100.00;100435.38;5055968;28;20238;-76
2023/04/10 01:12:15;;;;;;;0.75;0.75;;;;;;;10.40;100.00;100470.31;5056530;28;20223;-75
2023/04/10 01:14:52;;;;;;;1.25;1.23;;;;;;;10.27;100.00;100455.34;5054205;28;20252;-76
2023/04/10 01:17:27;;;;;;;0.80;0.80;;;;;;;10.38;100.00;100466.81;5050301;28;20191;-76
2023/04/10 01:20:02;;;;;;;0.68;0.68;;;;;;;10.41;100.00;100451.31;5050401;28;20650;-76
2023/04/10 01:22:36;;;;;;;0.73;0.73;;;;;;;10.38;100.00;100446.94;5050541;28;20670;-76
2023/04/10 01:25:19;;;;;;;0.90;0.90;;;;;;;10.43;100.00;100455.69;5050495;28;20227;-76
2023/04/10 01:28:01;;;;;;;0.70;0.70;;;;;;;10.37;100.00;100452.97;5050832;28;20210;-76
2023/04/10 01:30:32;;;;;;;0.80;0.80;;;;;;;10.31;100.00;100459.72;5050412;28;20210;-76
2023/04/10 01:33:01;;;;;;;0.70;0.70;;;;;;;10.29;100.00;100459.69;5049811;28;20195;-76
2023/04/10 01:35:30;;;;;;;0.88;0.88;;;;;;;10.23;100.00;100456.09;5050117;28;20196;-75
2023/04/10 01:37:58;;;;;;;0.70;0.70;;;;;;;10.27;100.00;100463.97;5050577;28;20581;-76
2023/04/10 01:40:27;;;;;;;0.70;0.70;;;;;;;10.31;100.00;100460.59;5051328;28;20220;-76
2023/04/10 01:42:56;;;;;;;0.80;0.80;;;;;;;10.34;100.00;100460.69;5015876;28;20227;-75
2023/04/10 01:45:26;;;;;;;0.95;0.95;;;;;;;10.26;100.00;100459.63;5052114;28;20192;-76
2023/04/10 01:47:55;;;;;;;0.75;0.75;;;;;;;10.16;100.00;100460.28;5054127;28;20628;-76
2023/04/10 01:50:23;;;;;;;0.80;0.80;;;;;;;10.03;100.00;100460.78;5054002;28;20203;-75
2023/04/10 01:52:51;;;;;;;0.70;0.70;;;;;;;10.01;100.00;100462.47;5053339;28;20195;-76
2023/04/10 01:55:21;;;;;;;0.82;0.82;;;;;;;10.00;100.00;100463.31;5053682;28;20227;-76
2023/04/10 01:57:48;;;;;;;0.70;0.70;;;;;;;10.00;100.00;100458.13;5053842;28;20204;-75
2023/04/10 02:00:16;;;;;;;0.60;0.60;;;;;;;10.01;100.00;100461.59;5053115;28;20231;-76
2023/04/10 02:02:43;;;;;;;0.60;0.60;;;;;;;9.99;100.00;100456.38;5053532;28;20231;-76
2023/04/10 02:05:11;;;;;;;0.60;0.60;;;;;;;10.02;100.00;100460.75;5053279;28;20564;-76
2023/04/10 02:07:44;;;;;;;0.60;0.60;;;;;;;10.02;100.00;100458.19;5053228;28;20204;-76
2023/04/10 02:10:15;;;;;;;0.65;0.65;;;;;;;9.61;100.00;100390.75;5053499;28;20679;-75
2023/04/10 02:12:49;;;;;;;0.80;0.80;;;;;;;10.03;100.00;100458.19;5053066;28;20242;-76
2023/04/10 02:15:19;;;;;;;0.80;0.80;;;;;;;9.94;100.00;100450.22;5051787;28;20199;-76
2023/04/10 02:17:46;;;;;;;0.70;0.70;;;;;;;9.84;100.00;100435.31;5053126;28;20207;-76
2023/04/10 02:20:17;;;;;;;0.60;0.60;;;;;;;10.00;100.00;100447.75;5053119;28;20200;-76
2023/04/10 02:22:45;;;;;;;2.00;1.90;;;;;;;9.98;100.00;100446.88;5052869;28;20204;-76
2023/04/10 02:25:12;;;;;;;0.60;0.60;;;;;;;9.86;100.00;100436.22;5053035;28;20269;-76
2023/04/10 02:27:39;;;;;;;0.68;0.68;;;;;;;9.98;100.00;100452.06;5053013;28;20211;-76
2023/04/10 02:30:07;;;;;;;0.60;0.60;;;;;;;9.94;100.00;100450.22;5051057;28;20203;-76
2023/04/10 02:32:34;;;;;;;0.73;0.73;;;;;;;9.92;100.00;100444.13;5053070;28;20655;-76
2023/04/10 02:35:01;;;;;;;0.60;0.60;;;;;;;9.75;100.00;100419.53;5051762;28;20199;-76
2023/04/10 02:37:30;;;;;;;0.60;0.60;;;;;;;9.87;100.00;100448.34;5052214;28;20547;-76
2023/04/10 02:39:56;;;;;;;0.80;0.80;;;;;;;9.78;100.00;100445.50;5033584;28;20277;-77
2023/04/10 02:42:23;;;;;;;1.08;1.08;;;;;;;9.70;100.00;100429.78;5053123;28;20635;-77
2023/04/10 02:44:50;;;;;;;0.70;0.70;;;;;;;9.76;100.00;100445.50;5053063;28;20211;-76
2023/04/10 02:47:17;;;;;;;0.75;0.75;;;;;;;9.65;100.00;100431.41;5052102;28;20207;-76
2023/04/10 02:49:44;;;;;;;0.70;0.70;;;;;;;9.77;100.00;100446.38;5052711;28;20195;-76
2023/04/10 02:52:11;;;;;;;0.80;0.80;;;;;;;10.16;100.00;100429.19;5051067;28;20451;-77
2023/04/10 02:54:39;;;;;;;7.53;2.25;;;;;;;10.25;100.00;100436.28;5052374;28;20192;-75
2023/04/10 02:57:06;;;;;;;0.70;0.70;;;;;;;10.18;100.00;100435.25;5052778;28;20534;-74
2023/04/10 02:59:33;;;;;;;0.70;0.70;;;;;;;9.63;100.00;100357.97;5052221;28;20650;-77
2023/04/10 03:01:59;;;;;;;0.77;0.77;;;;;;;10.06;100.00;100447.91;5052512;28;20255;-77
2023/04/10 03:04:27;;;;;;;0.80;0.80;;;;;;;10.06;100.00;100453.06;5051070;28;20448;-76
2023/04/10 03:06:54;;;;;;;0.90;0.90;;;;;;;10.06;100.00;100445.31;5052329;28;20208;-75
2023/04/10 03:09:21;;;;;;;0.70;0.70;;;;;;;10.03;100.00;100440.06;5051712;28;20213;-75
2023/04/10 03:11:49;;;;;;;0.50;0.50;;;;;;;10.46;100.00;100428.94;5051919;28;20447;-75
2023/04/10 03:14:16;;;;;;;1.27;1.02;;;;;;;10.29;100.00;100420.81;5052237;28;20207;-76
2023/04/10 03:16:43;;;;;;;0.85;0.85;;;;;;;10.02;100.00;100398.59;5052195;28;20550;-75
2023/04/10 03:19:11;;;;;;;0.70;0.70;;;;;;;10.15;100.00;100444.69;5052590;28;20227;-76
2023/04/10 03:21:38;;;;;;;0.70;0.70;;;;;;;10.13;100.00;100443.75;5051961;28;20222;-75
2023/04/10 03:24:05;;;;;;;0.80;0.80;;;;;;;10.07;100.00;100449.66;5052376;28;20265;-76
2023/04/10 03:26:32;;;;;;;0.70;0.70;;;;;;;9.90;100.00;100438.91;5051818;28;20207;-75
2023/04/10 03:29:01;;;;;;;0.98;0.98;;;;;;;9.79;100.00;100421.38;5049754;28;20202;-76
2023/04/10 03:31:27;;;;;;;0.70;0.70;;;;;;;9.81;100.00;100443.00;5016591;28;20210;-76
2023/04/10 03:33:54;;;;;;;0.70;0.70;;;;;;;9.70;100.00;100437.56;5051880;28;20207;-75
2023/04/10 03:36:21;;;;;;;0.70;0.70;;;;;;;9.75;100.00;100445.44;5050989;28;20210;-75
2023/04/10 03:38:48;;;;;;;0.60;0.60;;;;;;;9.65;100.00;100426.22;5051261;28;20261;-75
2023/04/10 03:41:15;;;;;;;0.88;0.88;;;;;;;9.71;100.00;100449.66;5032415;28;20226;-75
2023/04/10 03:43:42;;;;;;;0.70;0.70;;;;;;;9.63;100.00;100453.78;5050966;28;20203;-75
2023/04/10 03:46:10;;;;;;;1.00;1.00;;;;;;;9.67;100.00;100450.44;5008164;28;20706;-75
2023/04/10 03:48:36;;;;;;;0.63;0.63;;;;;;;9.43;100.00;100436.88;5038121;28;20282;-74
2023/04/10 03:51:03;;;;;;;0.80;0.80;;;;;;;9.56;100.00;100458.78;5039821;28;20226;-76
2023/04/10 03:53:34;;;;;;;0.75;0.75;;;;;;;9.55;100.00;100464.78;5051345;28;20615;-75
2023/04/10 03:56:01;;;;;;;0.80;0.80;;;;;;;9.40;100.00;100445.47;5051721;28;20516;-75
2023/04/10 03:58:28;;;;;;;1.20;1.20;;;;;;;9.49;100.00;100462.06;5051280;28;20203;-75
2023/04/10 04:00:55;;;;;;;0.60;0.60;;;;;;;9.43;100.00;100448.13;5051145;28;20223;-74
2023/04/10 04:03:23;;;;;;;1.55;1.30;;;;;;;9.50;100.00;100437.91;5051013;28;20670;-73
2023/04/10 04:05:51;;;;;;;0.70;0.70;;;;;;;9.53;100.00;100443.16;5051332;28;20215;-73
2023/04/10 04:08:18;;;;;;;0.80;0.80;;;;;;;9.66;100.00;100460.75;5051276;28;20310;-74
2023/04/10 04:10:44;;;;;;;0.70;0.70;;;;;;;9.67;100.00;100462.50;5031441;28;20914;-74
2023/04/10 04:13:11;;;;;;;0.70;0.70;;;;;;;9.67;100.00;100449.53;5051063;28;20281;-74
2023/04/10 04:15:38;;;;;;;0.77;0.77;;;;;;;9.81;100.00;100445.59;5051256;28;20195;-74
2023/04/10 04:18:05;;;;;;;1.90;1.80;;;;;;;10.09;100.00;100463.53;5051083;28;20203;-74
2023/04/10 04:20:33;;;;;;;0.80;0.80;;;;;;;10.44;100.00;100469.53;5050953;28;20207;-75
2023/04/10 04:23:00;;;;;;;0.90;0.90;;;;;;;10.59;100.00;100471.56;5051219;28;20215;-75
2023/04/10 04:25:26;;;;;;;0.70;0.70;;;;;;;10.76;100.00;100477.97;5032225;28;20203;-75
2023/04/10 04:27:53;;;;;;;0.60;0.60;;;;;;;11.11;100.00;100479.56;5050921;28;20203;-75
2023/04/10 04:30:20;;;;;;;0.85;0.85;;;;;;;11.34;100.00;100467.00;5050604;28;20203;-75
2023/04/10 04:32:47;;;;;;;0.65;0.65;;;;;;;11.59;100.00;100489.97;5051124;28;20208;-75
2023/04/10 04:35:13;;;;;;;0.80;0.80;;;;;;;11.57;100.00;100486.44;5051135;28;20196;-75
2023/04/10 04:37:41;;;;;;;0.93;0.93;;;;;;;11.85;100.00;100467.91;5050869;28;20207;-75
2023/04/10 04:40:09;;;;;;;0.65;0.65;;;;;;;12.04;100.00;100497.66;5050710;28;20199;-75
2023/04/10 04:42:36;;;;;;;0.60;0.60;;;;;;;12.15;100.00;100487.44;5049726;28;20284;-75
2023/04/10 04:45:03;;;;;;;0.80;0.80;;;;;;;12.11;100.00;100486.50;5049931;28;20207;-78
2023/04/10 04:47:29;;;;;;;0.50;0.50;;;;;;;12.09;100.00;100493.44;5050345;28;20697;-75
2023/04/10 04:49:56;;;;;;;2.13;2.03;;;;;;;11.90;100.00;100488.78;5050600;28;20207;-74
2023/04/10 04:52:24;;;;;;;0.70;0.70;;;;;;;11.78;100.00;100496.34;5015305;28;20226;-75
2023/04/10 04:54:52;;;;;;;0.60;0.60;;;;;;;11.72;100.00;100491.06;5049926;28;20282;-75
2023/04/10 04:57:19;;;;;;;0.65;0.65;;;;;;;11.62;100.00;100489.13;5050900;28;20206;-75
2023/04/10 04:59:46;;;;;;;0.70;0.70;;;;;;;11.32;100.00;100495.53;5050154;28;20227;-75
2023/04/10 05:02:12;;;;;;;1.20;1.20;;;;;;;11.10;100.00;100490.78;5049864;28;20249;-74
2023/04/10 05:04:39;;;;;;;0.70;0.70;;;;;;;11.05;100.00;100495.00;5050661;28;20212;-74
2023/04/10 05:07:06;;;;;;;1.00;1.00;;;;;;;10.80;100.00;100467.72;5050508;28;20223;-74
2023/04/10 05:09:33;;;;;;;1.00;1.00;;;;;;;10.72;100.00;100489.13;5050144;28;20199;-75
2023/04/10 05:12:01;;;;;;;0.70;0.70;;;;;;;10.80;100.00;100487.59;5049647;28;20203;-73
2023/04/10 05:14:28;;;;;;;0.70;0.70;;;;;;;10.77;100.00;100490.97;5049557;28;20282;-74
2023/04/10 05:16:54;;;;;;;1.23;1.23;;;;;;;10.90;100.00;100485.22;5053545;28;20253;-74
2023/04/10 05:19:21;;;;;;;0.70;0.70;;;;;;;10.82;100.00;100485.88;5054567;28;20650;-74
2023/04/10 05:21:48;;;;;;;0.70;0.70;;;;;;;10.83;100.00;100466.88;5053873;28;20710;-74
2023/04/10 05:24:15;;;;;;;0.60;0.60;;;;;;;10.98;100.00;100481.88;5054567;28;20222;-79
2023/04/10 05:26:41;;;;;;;5.72;2.60;;;;;;;11.20;100.00;100500.47;5020155;28;20230;-79
2023/04/10 05:29:09;;;;;;;0.60;0.60;;;;;;;11.30;100.00;100502.44;5056286;28;20203;-75
2023/04/10 05:31:36;;;;;;;0.60;0.60;;;;;;;11.12;100.00;100503.78;5057604;28;20207;-75
2023/04/10 05:34:03;;;;;;;0.80;0.80;;;;;;;11.17;100.00;100497.81;5059709;28;20565;-75
2023/04/10 05:36:30;;;;;;;0.70;0.70;;;;;;;11.20;100.00;100500.47;5059627;28;20203;-76
2023/04/10 05:38:57;;;;;;;0.80;0.80;;;;;;;11.27;100.00;100506.69;5058077;28;20195;-76
2023/04/10 05:41:24;;;;;;;0.90;0.90;;;;;;;11.34;100.00;100492.97;5019561;28;20266;-75
2023/04/10 05:43:50;;;;;;;0.70;0.70;;;;;;;11.26;100.00;100489.34;5047936;28;20211;-77
2023/04/10 05:46:18;;;;;;;0.70;0.70;;;;;;;11.34;100.00;100508.53;5039902;28;20200;-76
2023/04/10 05:48:45;;;;;;;0.75;0.75;;;;;;;11.37;100.00;100501.69;5053684;28;20206;-76
2023/04/10 05:51:12;;;;;;;0.80;0.80;;;;;;;11.24;100.00;100480.63;5053301;28;20226;-76
2023/04/10 05:53:39;;;;;;;0.70;0.70;;;;;;;11.43;100.00;100499.19;5053714;28;20682;-75
2023/04/10 05:56:06;;;;;;;0.60;0.60;;;;;;;11.62;100.00;100496.94;5053283;28;20218;-75
2023/04/10 05:58:33;;;;;;;0.60;0.60;;;;;;;11.40;100.00;100499.16;5053727;28;20226;-75
2023/04/10 06:01:00;;;;;;;0.80;0.80;;;;;;;11.56;100.00;100496.84;5034714;28;20231;-75
2023/04/10 06:03:29;;;;;;;0.68;0.68;;;;;;;11.53;100.00;100483.75;5018441;28;20223;-76
2023/04/10 06:05:56;;;;;;;1.02;1.02;;;;;;;11.42;100.00;100497.44;5053486;28;20599;-75
2023/04/10 06:08:23;;;;;;;0.80;0.80;;;;;;;11.68;100.00;100504.81;5053258;28;20265;-76
2023/04/10 06:10:50;;;;;;;1.33;1.33;;;;;;;11.79;100.00;100487.72;5053205;28;20211;-76
2023/04/10 06:13:17;;;;;;;0.70;0.70;;;;;;;11.92;100.00;100500.94;5053562;28;20203;-76
2023/04/10 06:15:44;;;;;;;0.70;0.70;;;;;;;11.96;100.00;100501.84;5053396;28;20611;-75
2023/04/10 06:18:10;;;;;;;0.90;0.90;;;;;;;12.15;100.00;100501.31;5052806;28;20203;-76
2023/04/10 06:20:39;;;;;;;0.80;0.80;;;;;;;12.41;100.00;100504.31;5053199;28;20207;-76
2023/04/10 06:23:06;;;;;;;0.80;0.80;;;;;;;12.40;100.00;100493.03;5053322;28;20352;-76
2023/04/10 06:25:33;;;;;;;0.70;0.70;;;;;;;12.51;99.35;100508.78;5039453;28;20214;-77
2023/04/10 06:27:59;;;;;;;0.70;0.70;;;;;;;12.58;99.60;100504.53;5052134;28;20586;-77
2023/04/10 06:30:26;;;;;;;0.98;0.98;;;;;;;12.28;100.00;100486.75;5052977;28;20204;-79
2023/04/10 06:32:53;;;;;;;1.23;1.23;;;;;;;12.40;99.95;100487.81;5052941;28;20203;-80
2023/04/10 06:35:20;;;;;;;0.77;0.77;;;;;;;12.81;97.61;100503.97;5052905;28;20221;-76
2023/04/10 06:37:48;;;;;;;0.70;0.70;;;;;;;13.12;99.18;100500.06;5052941;28;20625;-75
2023/04/10 06:40:15;;;;;;;0.70;0.70;;;;;;;13.28;93.35;100501.06;5017688;28;20199;-75
2023/04/10 06:42:42;;;;;;;0.63;0.63;;;;;;;13.16;93.70;100499.19;5052737;28;20310;-75
2023/04/10 06:45:09;;;;;;;0.95;0.95;;;;;;;12.99;93.76;100508.50;5052627;28;20269;-76
2023/04/10 06:47:36;;;;;;;0.70;0.70;;;;;;;12.41;97.10;100507.75;5038826;28;20242;-76
2023/04/10 06:50:03;;;;;;;0.68;0.68;;;;;;;12.35;100.00;100514.59;5052496;28;20203;-75
2023/04/10 06:52:30;;;;;;;0.90;0.90;;;;;;;12.58;100.00;100514.94;5052468;28;20215;-75
2023/04/10 06:54:58;;;;;;;1.95;1.65;;;;;;;12.91;99.23;100515.38;5052787;28;20195;-76
2023/04/10 06:57:25;;;;;;;0.70;0.70;;;;;;;13.28;95.69;100508.88;5052780;28;20195;-77
2023/04/10 06:59:51;;;;;;;1.98;1.27;;;;;;;13.15;95.38;100507.88;5052686;28;20235;-76
2023/04/10 07:02:18;;;;;;;0.80;0.80;;;;;;;12.96;98.30;100508.47;5052534;28;20227;-76
2023/04/10 07:04:45;;;;;;;1.15;1.15;;;;;;;13.30;95.12;100508.06;5052531;28;20207;-76
2023/04/10 07:07:12;;;;;;;0.80;0.80;;;;;;;13.29;96.62;100503.72;5052764;28;20199;-75
2023/04/10 07:09:39;;;;;;;0.93;0.93;;;;;;;12.86;97.56;100501.44;5052490;28;20196;-76
2023/04/10 07:12:07;;;;;;;1.33;1.33;;;;;;;12.89;100.00;100494.53;5052530;28;20203;-76
2023/04/10 07:14:35;;;;;;;0.70;0.70;;;;;;;13.00;99.38;100491.16;5052182;28;20207;-75
2023/04/10 07:17:02;;;;;;;1.30;1.30;;;;;;;12.68;100.00;100514.19;5052585;28;20230;-76
2023/04/10 07:19:29;;;;;;;4.97;3.70;;;;;;;12.50;100.00;100511.34;5052540;28;20210;-77
2023/04/10 07:21:55;;;;;;;1.15;1.15;;;;;;;12.66;100.00;100510.72;5017271;28;20199;-76
2023/04/10 07:24:22;;;;;;;0.70;0.70;;;;;;;12.82;100.00;100486.63;5052383;28;20206;-76
2023/04/10 07:26:49;;;;;;;1.05;1.05;;;;;;;13.45;100.00;100519.50;5052256;28;20206;-75
2023/04/10 07:29:17;;;;;;;1.52;1.42;;;;;;;13.42;99.96;100507.28;5052074;28;20227;-76
2023/04/10 07:31:44;;;;;;;0.77;0.77;;;;;;;13.49;100.00;100511.72;5052141;28;20202;-76
2023/04/10 07:34:12;;;;;;;2.05;1.92;;;;;;;13.97;98.16;100506.09;5033454;28;20698;-76
2023/04/10 07:36:38;;;;;;;1.15;1.15;;;;;;;13.63;97.46;100498.81;5052158;28;20202;-76
2023/04/10 07:39:05;;;;;;;1.00;1.00;;;;;;;13.47;99.92;100496.94;5051692;28;20199;-76
2023/04/10 07:41:32;;;;;;;0.80;0.80;;;;;;;13.41;100.00;100509.03;5033592;28;20196;-77
2023/04/10 07:43:59;;;;;;;4.15;2.58;;;;;;;13.53;100.00;100487.44;5052128;28;20250;-76
2023/04/10 07:46:27;;;;;;;0.90;0.90;;;;;;;13.71;99.18;100512.78;5051983;28;20211;-76
2023/04/10 07:48:55;;;;;;;0.85;0.85;;;;;;;13.88;95.09;100511.19;5051770;28;20203;-76
2023/04/10 07:51:22;;;;;;;0.70;0.70;;;;;;;14.00;94.83;100495.66;5016792;28;20206;-77
2023/04/10 07:53:48;;;;;;;1.05;1.05;;;;;;;13.80;91.39;100481.63;5051792;28;20199;-76
2023/04/10 07:56:17;;;;;;;0.80;0.80;;;;;;;14.25;90.67;100517.59;5051716;28;20232;-75
2023/04/10 07:58:43;;;;;;;1.30;1.30;;;;;;;14.14;86.30;100504.47;5051890;28;20195;-76
2023/04/10 08:01:10;;;;;;;1.80;1.80;;;;;;;14.16;85.05;100502.72;5051768;28;20243;-76
2023/04/10 08:03:42;;;;;;;1.65;1.23;;;;;;;14.35;85.70;100507.25;5033245;28;20235;-77
2023/04/10 08:06:10;;;;;;;2.35;2.25;;;;;;;14.55;86.89;100498.69;5051718;28;20226;-76
2023/04/10 08:08:38;;;;;;;1.20;1.20;;;;;;;14.48;82.90;100497.78;5051331;28;20203;-77
2023/04/10 08:11:08;;;;;;;0.70;0.70;;;;;;;14.69;82.70;100500.50;5051433;28;20204;-77
2023/04/10 08:13:35;;;;;;;2.25;1.55;;;;;;;14.52;83.80;100501.28;5051528;28;20203;-76
2023/04/10 08:16:02;;;;;;;0.63;0.63;;;;;;;14.35;84.33;100490.72;5051622;28;20203;-77
2023/04/10 08:18:28;;;;;;;0.70;0.70;;;;;;;14.68;85.40;100490.03;5051267;28;20203;-76
2023/04/10 08:20:57;;;;;;;0.70;0.70;;;;;;;14.88;83.82;100477.94;5051051;28;20229;-76
2023/04/10 08:23:23;;;;;;;0.60;0.60;;;;;;;15.23;81.61;100494.59;5051059;28;20223;-76
2023/04/10 08:25:50;;;;;;;1.35;1.35;;;;;;;15.31;77.54;100487.66;5051254;28;20199;-76
2023/04/10 08:28:18;;;;;;;0.70;0.70;;;;;;;15.17;78.64;100489.38;5051277;28;20207;-77
2023/04/10 08:30:45;;;;;;;0.70;0.70;;;;;;;15.27;78.73;100488.53;5051129;28;20254;-76
2023/04/10 08:33:11;;;;;;;0.70;0.70;;;;;;;15.81;76.19;100495.59;5051037;28;20203;-75
2023/04/10 08:35:38;;;;;;;0.80;0.80;;;;;;;15.95;74.30;100486.88;5050877;28;20210;-75
2023/04/10 08:38:06;;;;;;;4.68;2.95;;;;;;;16.10;74.61;100485.13;5051068;28;20659;-74
2023/04/10 08:40:37;;;;;;;0.65;0.65;;;;;;;16.04;74.38;100468.59;5051072;28;20195;-76
2023/04/10 08:43:04;;;;;;;0.60;0.60;;;;;;;16.14;76.07;100479.03;5032536;28;20227;-75
2023/04/10 08:45:30;;;;;;;0.60;0.60;;;;;;;15.84;75.43;100460.72;5050864;28;20210;-75
2023/04/10 08:47:58;;;;;;;0.98;0.98;;;;;;;16.04;76.34;100479.91;5050835;28;20206;-76
2023/04/10 08:50:25;;;;;;;0.60;0.60;;;;;;;16.14;72.36;100457.22;5052004;28;20195;-76
2023/04/10 08:52:55;;;;;;;1.00;1.00;;;;;;;16.49;70.13;100470.22;5055275;28;20207;-76
2023/04/10 08:55:24;;;;;;;1.98;1.25;;;;;;;16.43;72.13;100470.25;5020379;28;20206;-76
2023/04/10 08:57:51;;;;;;;0.63;0.63;;;;;;;16.54;70.58;100468.47;5055022;28;20708;-76
2023/04/10 09:00:18;;;;;;;0.85;0.85;;;;;;;16.72;69.11;100469.34;5055357;28;20613;-77
2023/04/10 09:02:45;;;;;;;1.05;1.05;;;;;;;16.83;69.19;100471.91;5054736;28;20219;-76
2023/04/10 09:05:12;;;;;;;1.00;1.00;;;;;;;16.49;71.40;100459.75;5055015;28;20199;-77
2023/04/10 09:07:39;;;;;;;1.30;1.30;;;;;;;16.20;68.10;100465.94;5055407;28;20235;-76
2023/04/10 09:10:07;;;;;;;40.03;2.15;;;;;;;15.64;73.36;100462.47;5055053;28;20196;-76
2023/04/10 09:12:46;;;;;;;0.75;0.75;;;;;;;16.12;73.18;100465.09;5054896;28;20218;-76
2023/04/10 09:15:13;;;;;;;6.45;1.45;;;;;;;16.12;72.67;100459.00;5054643;28;20293;-76
2023/04/10 09:17:56;;;;;;;0.80;0.80;;;;;;;16.19;67.80;100458.09;5054935;28;20203;-76
2023/04/10 09:20:24;;;;;;;0.90;0.90;;;;;;;16.05;66.99;100455.47;5054695;28;20203;-76
2023/04/10 09:22:51;;;;;;;2.10;2.00;;;;;;;15.69;68.40;100443.34;5054590;28;20235;-75
2023/04/10 09:25:32;;;;;;;0.80;0.80;;;;;;;15.80;68.00;100446.78;5054601;28;20631;-76
2023/04/10 09:28:06;;;;;;;0.70;0.70;;;;;;;15.78;67.08;100391.03;5036357;28;20701;-76
2023/04/10 09:30:35;;;;;;;1.95;1.48;;;;;;;15.77;65.83;100431.09;5054664;28;20671;-76
2023/04/10 09:33:02;;;;;;;0.65;0.65;;;;;;;15.82;65.61;100439.84;5056635;28;20254;-75
2023/04/10 09:35:37;;;;;;;0.60;0.60;;;;;;;16.12;64.43;100402.31;5056007;28;20565;-76
2023/04/10 09:38:15;;;;;;;0.90;0.90;;;;;;;16.52;68.75;100397.78;5056261;28;20206;-76
2023/04/10 09:40:42;;;;;;;1.98;1.98;;;;;;;16.29;63.96;100410.97;5056629;28;20231;-76
2023/04/10 09:43:21;;;;;;;0.80;0.80;;;;;;;16.67;72.82;100412.59;5035726;28;20227;-76
2023/04/10 09:45:50;;;;;;;0.73;0.73;;;;;;;16.36;63.65;100417.94;5054236;28;20203;-78
2023/04/10 09:48:17;;;;;;;0.60;0.60;;;;;;;16.59;63.15;100414.38;5054411;28;20218;-78
2023/04/10 09:50:44;;;;;;;0.70;0.70;;;;;;;16.32;62.21;100384.78;5054359;28;20211;-78
2023/04/10 09:53:13;;;;;;;1.10;1.10;;;;;;;16.08;62.59;100413.66;5054196;28;20203;-78
2023/04/10 09:55:41;;;;;;;3.72;1.58;;;;;;;16.60;61.79;100396.06;5053906;28;20234;-77
2023/04/10 09:58:09;;;;;;;0.80;0.80;;;;;;;16.94;60.15;100407.25;5054246;28;20202;-78
2023/04/10 10:00:40;;;;;;;0.70;0.70;;;;;;;16.51;61.83;100406.53;5053832;28;20258;-76
2023/04/10 10:03:09;;;;;;;0.60;0.60;;;;;;;16.98;61.94;100393.22;5053796;28;20227;-78
2023/04/10 10:05:39;;;;;;;0.70;0.70;;;;;;;16.72;62.72;100395.13;5035765;28;20203;-77
2023/04/10 10:08:07;;;;;;;4.32;2.60;;;;;;;16.45;63.61;100390.84;5018952;28;20196;-76
2023/04/10 10:10:34;;;;;;;0.80;0.80;;;;;;;16.24;63.47;100356.91;5053615;28;20206;-77
2023/04/10 10:13:02;;;;;;;1.40;1.40;;;;;;;16.50;62.10;100367.28;5053953;28;20250;-77
2023/04/10 10:15:34;;;;;;;0.80;0.80;;;;;;;16.90;61.33;100378.44;5053759;28;20294;-78
2023/04/10 10:18:07;;;;;;;0.80;0.80;;;;;;;16.74;61.66;100380.28;5053483;28;20199;-77
2023/04/10 10:20:35;;;;;;;1.00;1.00;;;;;;;16.63;60.14;100369.84;5053556;28;20671;-79
2023/04/10 10:23:02;;;;;;;0.70;0.70;;;;;;;16.69;59.54;100368.97;5053767;28;20595;-79
2023/04/10 10:25:30;;;;;;;0.80;0.80;;;;;;;17.02;58.14;100362.63;5053534;28;20209;-78
2023/04/10 10:28:02;;;;;;;0.70;0.70;;;;;;;16.85;57.73;100328.69;5053639;28;20199;-77
2023/04/10 10:30:32;;;;;;;2.13;1.98;;;;;;;16.66;59.14;100361.09;5053550;28;20206;-78
2023/04/10 10:33:00;;;;;;;0.73;0.73;;;;;;;16.91;58.42;100354.00;5054060;28;20200;-78
2023/04/10 10:35:31;;;;;;;0.80;0.80;;;;;;;16.79;57.96;100357.56;5053759;28;20196;-78
2023/04/10 10:38:00;;;;;;;0.68;0.68;;;;;;;16.89;57.53;100356.63;5053482;28;20199;-78
2023/04/10 10:40:31;;;;;;;0.70;0.70;;;;;;;17.00;54.17;100352.19;5053333;28;20191;-79
2023/04/10 10:43:05;;;;;;;0.85;0.85;;;;;;;16.75;55.80;100347.97;5053344;28;20195;-75
2023/04/10 10:45:38;;;;;;;0.70;0.70;;;;;;;16.91;54.67;100349.59;5053003;28;20689;-75
2023/04/10 10:48:05;;;;;;;1.20;1.20;;;;;;;16.56;54.86;100314.91;5053128;28;20788;-76
2023/04/10 10:50:57;;;;;;;0.63;0.63;;;;;;;17.41;54.19;100340.53;5018368;28;20295;-76
2023/04/10 10:53:35;;;;;;;0.70;0.70;;;;;;;17.32;58.29;100321.38;5052707;28;20264;-78
2023/04/10 10:56:31;;;;;;;1.05;1.05;;;;;;;17.56;54.29;100329.88;5052869;28;20196;-77
2023/04/10 10:58:58;;;;;;;0.70;0.70;;;;;;;17.55;53.03;100328.16;5051892;28;20200;-78
2023/04/10 11:01:25;;;;;;;0.65;0.65;;;;;;;17.89;52.09;100303.34;5052768;28;20235;-76
2023/04/10 11:03:51;;;;;;;0.50;0.50;;;;;;;17.77;52.45;100333.19;5052533;28;20234;-75
2023/04/10 11:06:21;;;;;;;0.50;0.50;;;;;;;17.85;51.92;100327.88;5052394;28;20562;-75
2023/04/10 11:08:48;;;;;;;0.95;0.95;;;;;;;17.79;52.32;100327.94;5052694;28;20206;-76
2023/04/10 11:11:17;;;;;;;0.80;0.80;;;;;;;17.79;51.20;100317.44;5052725;28;20192;-75
2023/04/10 11:14:16;;;;;;;0.80;0.80;;;;;;;17.95;49.58;100319.00;5051704;28;20593;-77
2023/04/10 11:16:47;;;;;;;2.30;1.85;;;;;;;17.88;49.94;100314.72;5052644;28;20231;-78
2023/04/10 11:19:16;;;;;;;0.70;0.70;;;;;;;17.83;50.29;100303.44;5052505;28;20202;-72
2023/04/10 11:22:04;;;;;;;0.80;0.80;;;;;;;17.68;50.14;100311.44;5018396;28;20199;-77
2023/04/10 11:24:55;;;;;;;0.90;0.90;;;;;;;17.41;50.31;100306.44;5052781;28;20289;-77
2023/04/10 11:27:43;;;;;;;0.70;0.70;;;;;;;17.66;50.47;100306.22;5034368;28;20203;-76